KBRD/BRD METAR and TAF weather

Enter ICAO airport designator
Station Type Date Time Source
KBRD METAR 2020/03/31 21:53 UTC NOAA

KBRD 312153Z AUTO 07006G17KT 10SM CLR 12/M06 A3004 RMK AO2 SLP182 T01171061


Station Type Date Time Source
KBRD Decoded METAR 2020/03/31 21:53 UTC NOAA

BRAINERD-CROW WING CO AIRPORT , MN, United States (KBRD) 46-24N 94-08W 372M
Mar 31, 2020 - 05:53 PM EDT / 2020.03.31 2153 UTC
Wind: from the ENE (070 degrees) at 7 MPH (6 KT) gusting to 20 MPH (17 KT):0
Visibility: 10 mile(s):0
Sky conditions: clear
Temperature: 53.1 F (11.7 C)
Dew Point: 21.0 F (-6.1 C)
Relative Humidity: 28%
Pressure (altimeter): 30.04 in. Hg (1017 hPa)
ob: KBRD 312153Z AUTO 07006G17KT 10SM CLR 12/M06 A3004 RMK AO2 SLP182 T01171061
cycle: 22

Station Type Date Time Source
KBRD TAF 2020/03/31 18:22 UTC NOAA

TAF KBRD 311720Z 3118/0118 12008KT P6SM SKC
FM010600 11008KT P6SM BKN012
FM011400 13011KT 6SM -SHRA BKN035

Example: see airport list